Renchville, Illinois
Current Conditions -  °F | °C
As of 2:55 AM on Wednesday 28 Jan 2015 (Local Time) from KC75 Reporting Station
Overcast Overcast  
Wind Chill: 23°   Ceiling: 1500
Heat Index: 29°   Visibility: 7mi
Dew Point: 24°   Wind: 6mph
Humidity: 84%   Direction: 130°SE
Pressure: 30.24"   Gusts: NA
Location:  40.915°N, 89.5303°W
Report Text: KC75 280855Z AUTO 13005KT 7SM OVC015 M02/M04 A3024 RMK AO2 T10181042
Loading
Personal Weather Stations






























Interactive Weather Map New forecast layout! Learn more

10-Day Weather Forecast

Advertisements
Track Severe Weather on mobile